createdAt,value
2023-05-22T00:01:05.942Z,12.81
2023-05-22T00:03:34.059Z,12.92
2023-05-22T00:06:06.603Z,12.73
2023-05-22T00:08:34.342Z,12.91
2023-05-22T00:11:01.696Z,12.78
2023-05-22T00:13:30.108Z,12.70
2023-05-22T00:15:58.382Z,12.75
2023-05-22T00:18:27.550Z,12.66
2023-05-22T00:21:00.297Z,12.57
2023-05-22T00:23:33.075Z,12.64
2023-05-22T00:26:05.855Z,12.54
2023-05-22T00:28:35.747Z,12.29
2023-05-22T00:31:09.837Z,11.99
2023-05-22T00:33:39.201Z,12.19
2023-05-22T00:36:12.423Z,12.46
2023-05-22T00:39:01.920Z,12.51
2023-05-22T00:41:34.691Z,12.65
2023-05-22T00:44:06.768Z,12.44
2023-05-22T00:46:38.327Z,12.13
2023-05-22T00:49:07.506Z,12.37
2023-05-22T00:51:37.803Z,12.40
2023-05-22T00:54:13.323Z,12.42
2023-05-22T00:56:44.367Z,12.14
2023-05-22T00:59:14.451Z,11.74
2023-05-22T01:01:49.675Z,11.97
2023-05-22T01:04:21.483Z,11.60
2023-05-22T01:06:49.883Z,12.14
2023-05-22T01:09:20.473Z,11.96
2023-05-22T01:12:28.239Z,12.01
2023-05-22T01:15:43.906Z,11.75
2023-05-22T01:18:20.273Z,11.84
2023-05-22T01:20:59.161Z,12.15
2023-05-22T01:23:58.107Z,11.87
2023-05-22T01:26:45.742Z,12.17
2023-05-22T01:29:20.265Z,12.27
2023-05-22T01:31:58.165Z,12.17
2023-05-22T01:34:34.157Z,12.31
2023-05-22T01:37:04.574Z,12.26
2023-05-22T01:39:34.981Z,12.19
2023-05-22T01:42:31.649Z,12.05
2023-05-22T01:45:04.725Z,11.71
2023-05-22T01:47:33.936Z,11.98
2023-05-22T01:50:01.693Z,12.15
2023-05-22T01:52:45.962Z,11.82
2023-05-22T01:55:21.270Z,12.15
2023-05-22T01:57:56.971Z,12.07
2023-05-22T02:00:26.730Z,12.03
2023-05-22T02:03:08.918Z,11.82
2023-05-22T02:05:39.049Z,11.96
2023-05-22T02:08:07.998Z,11.86
2023-05-22T02:10:42.472Z,11.92
2023-05-22T02:13:10.939Z,11.92
2023-05-22T02:15:38.920Z,11.63
2023-05-22T02:18:15.030Z,11.73
2023-05-22T02:20:43.723Z,11.68
2023-05-22T02:23:10.967Z,11.68
2023-05-22T02:25:38.436Z,11.77
2023-05-22T02:28:05.712Z,11.52
2023-05-22T02:30:33.405Z,11.84
2023-05-22T02:33:00.745Z,11.69
2023-05-22T02:35:28.382Z,11.90
2023-05-22T02:37:55.491Z,11.85
2023-05-22T02:40:23.009Z,11.73
2023-05-22T02:42:50.630Z,11.89
2023-05-22T02:45:19.226Z,12.05
2023-05-22T02:47:46.434Z,11.52
2023-05-22T02:50:14.620Z,11.60
2023-05-22T02:52:41.713Z,11.90
2023-05-22T02:55:09.561Z,11.68
2023-05-22T02:57:36.885Z,11.87
2023-05-22T03:00:07.050Z,11.84
2023-05-22T03:02:34.827Z,11.76
2023-05-22T03:05:02.301Z,11.76
2023-05-22T03:07:30.136Z,11.96
2023-05-22T03:09:57.729Z,12.07
2023-05-22T03:12:24.834Z,12.13
2023-05-22T03:14:52.231Z,11.96
2023-05-22T03:17:19.393Z,12.25
2023-05-22T03:19:47.117Z,12.17
2023-05-22T03:22:14.155Z,12.32
2023-05-22T03:24:41.770Z,12.28
2023-05-22T03:27:08.877Z,12.38
2023-05-22T03:29:40.281Z,12.62
2023-05-22T03:32:07.687Z,12.52
2023-05-22T03:34:35.952Z,12.54
2023-05-22T03:37:04.749Z,12.68
2023-05-22T03:39:32.074Z,12.65
2023-05-22T03:42:05.401Z,12.90
2023-05-22T03:44:32.951Z,12.89
2023-05-22T03:47:01.527Z,12.67
2023-05-22T03:49:29.956Z,12.95
2023-05-22T03:51:57.818Z,13.13
2023-05-22T03:54:25.261Z,12.98
2023-05-22T03:56:52.304Z,12.91
2023-05-22T03:59:32.753Z,12.82
2023-05-22T04:02:01.352Z,12.83
2023-05-22T04:04:29.182Z,13.36
2023-05-22T04:06:58.265Z,13.49
2023-05-22T04:09:32.240Z,13.22
2023-05-22T04:11:59.449Z,13.25
2023-05-22T04:14:26.752Z,13.71
2023-05-22T04:16:54.039Z,13.73
2023-05-22T04:19:23.927Z,13.80
2023-05-22T04:21:52.520Z,14.16
2023-05-22T04:24:20.972Z,14.21
2023-05-22T04:26:48.252Z,14.31
2023-05-22T04:29:16.506Z,14.36
2023-05-22T04:31:44.512Z,14.62
2023-05-22T04:34:15.208Z,14.91
2023-05-22T04:36:45.212Z,14.94
2023-05-22T04:39:14.022Z,14.93
2023-05-22T04:41:41.189Z,14.91
2023-05-22T04:44:08.802Z,15.19
2023-05-22T04:46:36.074Z,15.43
2023-05-22T04:49:03.765Z,15.40
2023-05-22T04:51:32.388Z,15.57
2023-05-22T04:53:59.799Z,15.97
2023-05-22T04:56:36.112Z,16.15
2023-05-22T04:59:17.370Z,16.43
2023-05-22T05:01:46.556Z,15.91
2023-05-22T05:04:15.490Z,16.03
2023-05-22T05:06:47.556Z,15.98
2023-05-22T05:09:16.806Z,16.45
2023-05-22T05:11:47.339Z,16.42
2023-05-22T05:14:22.765Z,16.43
2023-05-22T05:16:53.654Z,16.32
2023-05-22T05:19:27.799Z,16.72
2023-05-22T05:21:59.491Z,17.06
2023-05-22T05:24:58.538Z,16.97
2023-05-22T05:27:34.895Z,17.12
2023-05-22T05:30:08.900Z,17.64
2023-05-22T05:32:58.568Z,17.83
2023-05-22T05:35:46.064Z,18.24
2023-05-22T05:38:18.441Z,17.98
2023-05-22T05:40:50.150Z,18.15
2023-05-22T05:43:21.916Z,18.38
2023-05-22T05:45:59.508Z,17.99
2023-05-22T05:48:29.724Z,18.63
2023-05-22T05:51:00.740Z,17.79
2023-05-22T05:53:38.413Z,18.40
2023-05-22T05:56:12.030Z,18.62
2023-05-22T05:58:44.207Z,18.50
2023-05-22T06:01:36.341Z,19.20
2023-05-22T06:04:11.090Z,19.16
2023-05-22T06:06:57.808Z,18.62
2023-05-22T06:09:33.775Z,19.48
2023-05-22T06:12:19.152Z,19.29
2023-05-22T06:14:50.301Z,19.78
2023-05-22T06:17:22.151Z,19.68
2023-05-22T06:19:52.725Z,19.80
2023-05-22T06:22:26.982Z,19.17
2023-05-22T06:24:59.327Z,19.29
2023-05-22T06:27:31.450Z,19.47
2023-05-22T06:30:05.824Z,19.40
2023-05-22T06:32:45.935Z,19.10
2023-05-22T06:35:24.126Z,20.33
2023-05-22T06:37:55.542Z,19.91
2023-05-22T06:40:24.901Z,19.48
2023-05-22T06:43:00.848Z,20.18
2023-05-22T06:45:49.835Z,19.99
2023-05-22T06:48:37.019Z,19.69
2023-05-22T06:51:19.629Z,20.01
2023-05-22T06:53:53.699Z,19.90
2023-05-22T06:56:36.198Z,20.72
2023-05-22T06:59:14.927Z,20.60
2023-05-22T07:02:10.888Z,20.58
2023-05-22T07:05:01.359Z,21.42
2023-05-22T07:07:46.012Z,21.23
2023-05-22T07:10:18.535Z,20.97
2023-05-22T07:12:50.740Z,21.03
2023-05-22T07:15:23.843Z,21.92
2023-05-22T07:17:56.974Z,22.26
2023-05-22T07:20:28.461Z,20.82
2023-05-22T07:23:18.677Z,20.62
2023-05-22T07:25:49.965Z,20.71
2023-05-22T07:28:24.509Z,21.33
2023-05-22T07:31:02.215Z,21.09
2023-05-22T07:33:32.541Z,21.61
2023-05-22T07:36:08.180Z,22.85
2023-05-22T07:38:43.036Z,21.86
2023-05-22T07:41:13.868Z,21.80
2023-05-22T07:43:43.453Z,22.16
2023-05-22T07:46:20.466Z,21.40
2023-05-22T07:49:07.269Z,22.43
2023-05-22T07:51:36.767Z,22.91
2023-05-22T07:54:04.257Z,23.46
2023-05-22T07:56:33.240Z,22.80
2023-05-22T07:59:08.130Z,23.28
2023-05-22T08:01:52.080Z,23.65
2023-05-22T08:04:21.660Z,23.27
2023-05-22T08:06:52.827Z,23.44
2023-05-22T08:09:21.764Z,23.43
2023-05-22T08:11:53.465Z,23.82
2023-05-22T08:14:23.760Z,23.58
2023-05-22T08:16:52.738Z,23.82
2023-05-22T08:19:20.048Z,23.32
2023-05-22T08:21:48.380Z,24.04
2023-05-22T08:24:18.051Z,23.99
2023-05-22T08:26:47.706Z,23.65
2023-05-22T08:29:15.848Z,23.47
2023-05-22T08:31:43.502Z,23.87
2023-05-22T08:34:11.315Z,23.62
2023-05-22T08:36:39.003Z,23.56
2023-05-22T08:39:07.538Z,24.49
2023-05-22T08:41:35.385Z,24.56
2023-05-22T08:44:02.567Z,23.65
2023-05-22T08:46:30.722Z,24.14
2023-05-22T08:48:58.646Z,23.98
2023-05-22T08:51:33.294Z,24.18
2023-05-22T08:54:01.279Z,24.21
2023-05-22T08:56:30.309Z,23.88
2023-05-22T08:59:00.857Z,24.53
2023-05-22T09:01:29.868Z,24.66
2023-05-22T09:04:02.542Z,24.72
2023-05-22T09:06:30.437Z,25.22
2023-05-22T09:08:58.163Z,24.86
2023-05-22T09:11:30.243Z,24.70
2023-05-22T09:14:10.068Z,24.70
2023-05-22T09:16:50.439Z,24.73
2023-05-22T09:19:20.304Z,24.15
2023-05-22T09:21:49.703Z,24.72
2023-05-22T09:24:16.864Z,24.91
2023-05-22T09:26:44.215Z,24.25
2023-05-22T09:29:11.291Z,25.07
2023-05-22T09:31:42.791Z,24.80
2023-05-22T09:34:11.318Z,24.94
2023-05-22T09:36:38.718Z,24.58
2023-05-22T09:39:06.485Z,25.13
2023-05-22T09:41:36.613Z,25.08
2023-05-22T09:44:14.258Z,24.57
2023-05-22T09:46:46.663Z,24.77
2023-05-22T09:49:16.551Z,25.51
2023-05-22T09:51:48.347Z,24.72
2023-05-22T09:54:17.428Z,24.92
2023-05-22T09:56:49.224Z,25.39
2023-05-22T09:59:26.651Z,25.52
2023-05-22T10:01:54.571Z,25.51
2023-05-22T10:04:23.111Z,25.57
2023-05-22T10:06:52.804Z,25.07
2023-05-22T10:09:25.003Z,25.36
2023-05-22T10:11:55.114Z,25.88
2023-05-22T10:14:23.896Z,26.16
2023-05-22T10:16:52.176Z,25.72
2023-05-22T10:19:19.605Z,26.22
2023-05-22T10:21:48.405Z,25.58
2023-05-22T10:24:15.791Z,26.30
2023-05-22T10:26:44.318Z,25.21
2023-05-22T10:29:25.520Z,25.74
2023-05-22T10:32:41.655Z,25.91
2023-05-22T10:35:25.271Z,25.64
2023-05-22T10:38:02.113Z,25.35
2023-05-22T10:40:36.160Z,26.06
2023-05-22T10:43:06.483Z,26.25
2023-05-22T10:45:33.745Z,26.50
2023-05-22T10:48:06.679Z,25.35
2023-05-22T10:50:35.248Z,25.89
2023-05-22T10:53:27.832Z,26.12
2023-05-22T10:55:57.391Z,27.00
2023-05-22T10:58:28.945Z,25.87
2023-05-22T11:01:19.892Z,26.92
2023-05-22T11:03:54.852Z,26.24
2023-05-22T11:06:33.392Z,26.83
2023-05-22T11:09:39.817Z,25.80
2023-05-22T11:12:25.244Z,25.31
2023-05-22T11:17:45.827Z,26.56
2023-05-22T11:20:24.907Z,26.35
2023-05-22T11:23:00.041Z,27.47
2023-05-22T11:25:31.216Z,27.04
2023-05-22T11:28:04.069Z,27.70
2023-05-22T11:30:35.713Z,26.92
2023-05-22T11:33:06.981Z,27.09
2023-05-22T11:35:36.197Z,26.81
2023-05-22T11:38:08.664Z,27.12
2023-05-22T11:40:36.207Z,26.73
2023-05-22T11:43:04.679Z,25.26
2023-05-22T11:45:37.061Z,25.44
2023-05-22T11:48:04.780Z,24.74
2023-05-22T11:50:42.415Z,26.26
2023-05-22T11:53:12.938Z,25.76
2023-05-22T11:55:43.511Z,24.61
2023-05-22T11:58:12.310Z,25.43
2023-05-22T12:00:41.396Z,25.63
2023-05-22T12:03:09.989Z,25.85
2023-05-22T12:05:39.137Z,25.56
2023-05-22T12:08:07.898Z,26.39
2023-05-22T12:10:39.462Z,26.77
2023-05-22T12:13:09.597Z,26.65
2023-05-22T12:15:40.221Z,26.47
2023-05-22T12:18:14.008Z,25.64
2023-05-22T12:20:44.345Z,25.22
2023-05-22T12:23:26.936Z,24.18
2023-05-22T12:26:00.032Z,24.45
2023-05-22T12:28:28.065Z,25.85
2023-05-22T12:30:56.328Z,25.18
2023-05-22T12:33:28.366Z,24.09
2023-05-22T12:35:59.275Z,24.54
2023-05-22T12:38:32.521Z,25.88
2023-05-22T12:41:01.621Z,26.33
2023-05-22T12:43:28.826Z,25.33
2023-05-22T12:45:56.262Z,25.17
2023-05-22T12:48:23.623Z,24.87
2023-05-22T12:50:51.130Z,25.38
2023-05-22T12:53:18.273Z,25.95
2023-05-22T12:55:45.862Z,26.51
2023-05-22T12:58:13.632Z,25.99
2023-05-22T13:00:48.483Z,24.58
2023-05-22T13:03:17.534Z,24.98
2023-05-22T13:05:47.016Z,24.67
2023-05-22T13:08:15.494Z,24.61
2023-05-22T13:10:44.000Z,25.08
2023-05-22T13:13:12.158Z,26.09
2023-05-22T13:15:43.588Z,26.82
2023-05-22T13:18:12.114Z,25.66
2023-05-22T13:20:40.913Z,26.16
2023-05-22T13:23:09.296Z,25.63
2023-05-22T13:25:41.998Z,25.85
2023-05-22T13:28:09.530Z,26.52
2023-05-22T13:30:37.783Z,26.94
2023-05-22T13:33:05.756Z,27.02
2023-05-22T13:35:33.368Z,26.14
2023-05-22T13:38:00.679Z,25.93
2023-05-22T13:40:28.357Z,25.92
2023-05-22T13:42:56.216Z,25.93
2023-05-22T13:45:25.028Z,25.47
2023-05-22T13:47:56.178Z,24.88
2023-05-22T13:50:24.192Z,25.63
2023-05-22T13:52:58.067Z,25.25
2023-05-22T13:55:29.991Z,25.14
2023-05-22T13:57:57.937Z,25.96
2023-05-22T14:00:27.029Z,25.75
2023-05-22T14:02:58.543Z,26.72
2023-05-22T14:05:28.064Z,26.02
2023-05-22T14:07:57.294Z,26.01
2023-05-22T14:10:26.165Z,24.90
2023-05-22T14:12:55.514Z,25.40
2023-05-22T14:15:24.914Z,25.98
2023-05-22T14:17:53.895Z,25.39
2023-05-22T14:20:22.468Z,25.31
2023-05-22T14:25:34.008Z,25.55
2023-05-22T14:28:03.687Z,26.35
2023-05-22T14:30:34.769Z,25.85
2023-05-22T14:33:04.691Z,25.98
2023-05-22T14:35:36.086Z,26.06
2023-05-22T14:38:04.573Z,25.79
2023-05-22T14:40:40.240Z,26.12
2023-05-22T14:43:08.886Z,26.12
2023-05-22T14:45:36.366Z,25.59
2023-05-22T14:48:04.790Z,26.04
2023-05-22T14:50:32.578Z,25.21
2023-05-22T14:52:59.909Z,25.42
2023-05-22T14:55:28.225Z,25.53
2023-05-22T14:57:55.746Z,25.36
2023-05-22T15:00:23.294Z,24.97
2023-05-22T15:02:50.746Z,24.82
2023-05-22T15:05:18.780Z,25.39
2023-05-22T15:07:49.811Z,25.37
2023-05-22T15:10:24.241Z,23.99
2023-05-22T15:12:53.887Z,24.20
2023-05-22T15:15:24.564Z,23.42
2023-05-22T15:17:53.666Z,23.66
2023-05-22T15:20:27.653Z,22.52
2023-05-22T15:22:55.534Z,23.34
2023-05-22T15:25:23.292Z,23.28
2023-05-22T15:27:50.541Z,23.34
2023-05-22T15:30:23.865Z,23.85
2023-05-22T15:32:59.242Z,25.32
2023-05-22T15:35:36.484Z,24.53
2023-05-22T15:38:13.676Z,25.67
2023-05-22T15:40:45.143Z,23.31
2023-05-22T15:43:14.384Z,23.01
2023-05-22T15:45:50.283Z,22.61
2023-05-22T15:48:21.367Z,24.11
2023-05-22T15:51:07.443Z,23.25
2023-05-22T15:53:36.708Z,24.16
2023-05-22T15:56:06.342Z,22.88
2023-05-22T15:58:37.912Z,22.46
2023-05-22T16:01:13.311Z,22.41
2023-05-22T16:03:44.853Z,22.81
2023-05-22T16:06:14.693Z,22.43
2023-05-22T16:08:42.665Z,22.19
2023-05-22T16:11:10.624Z,22.60
2023-05-22T16:13:37.853Z,22.51
2023-05-22T16:16:06.085Z,22.50
2023-05-22T16:18:33.458Z,22.02
2023-05-22T16:21:03.575Z,21.97
2023-05-22T16:23:37.347Z,22.10
2023-05-22T16:26:19.960Z,21.84
2023-05-22T16:31:20.557Z,21.69
2023-05-22T16:33:47.885Z,21.65
2023-05-22T16:36:15.695Z,21.62
2023-05-22T16:38:43.516Z,21.34
2023-05-22T16:41:11.640Z,21.12
2023-05-22T16:43:39.152Z,21.30
2023-05-22T16:46:06.732Z,21.18
2023-05-22T16:48:34.248Z,21.17
2023-05-22T16:51:02.049Z,20.98
2023-05-22T16:53:51.846Z,20.71
2023-05-22T16:56:44.332Z,20.63
2023-05-22T16:59:13.040Z,20.86
2023-05-22T17:01:59.032Z,20.61
2023-05-22T17:04:31.681Z,20.68
2023-05-22T17:07:07.276Z,20.50
2023-05-22T17:09:34.792Z,20.30
2023-05-22T17:12:02.501Z,20.29
2023-05-22T17:14:33.823Z,20.09
2023-05-22T17:17:02.807Z,20.34
2023-05-22T17:19:30.581Z,20.10
2023-05-22T17:21:58.335Z,20.03
2023-05-22T17:24:27.823Z,19.89
2023-05-22T17:26:55.236Z,19.91
2023-05-22T17:29:22.495Z,19.93
2023-05-22T17:31:50.207Z,19.62
2023-05-22T17:34:17.840Z,19.88
2023-05-22T17:36:45.416Z,19.55
2023-05-22T17:39:12.794Z,19.70
2023-05-22T17:41:40.442Z,19.63
2023-05-22T17:44:07.778Z,19.53
2023-05-22T17:46:36.072Z,19.68
2023-05-22T17:49:28.236Z,19.24
2023-05-22T17:52:25.353Z,19.13
2023-05-22T17:54:53.097Z,19.21
2023-05-22T17:57:20.657Z,19.14
2023-05-22T17:59:48.533Z,19.26
2023-05-22T18:02:17.959Z,18.78
2023-05-22T18:04:46.012Z,19.01
2023-05-22T18:07:13.521Z,19.15
2023-05-22T18:09:41.347Z,18.79
2023-05-22T18:12:15.227Z,18.85
2023-05-22T18:14:52.449Z,18.82
2023-05-22T18:17:20.487Z,18.52
2023-05-22T18:19:49.035Z,18.69
2023-05-22T18:22:16.705Z,18.42
2023-05-22T18:24:44.824Z,18.29
2023-05-22T18:27:12.496Z,18.11
2023-05-22T18:29:40.548Z,18.05
2023-05-22T18:32:14.069Z,17.97
2023-05-22T18:34:45.361Z,17.80
2023-05-22T18:37:14.153Z,17.75
2023-05-22T18:39:45.821Z,17.72
2023-05-22T18:42:19.110Z,17.59
2023-05-22T18:44:49.747Z,17.54
2023-05-22T18:47:17.595Z,17.46
2023-05-22T18:49:46.822Z,17.12
2023-05-22T18:52:14.347Z,17.19
2023-05-22T18:54:43.278Z,17.14
2023-05-22T18:57:10.906Z,17.19
2023-05-22T18:59:38.509Z,17.08
2023-05-22T19:02:06.872Z,16.88
2023-05-22T19:04:34.776Z,16.93
2023-05-22T19:07:03.224Z,16.80
2023-05-22T19:09:30.773Z,16.72
2023-05-22T19:11:58.138Z,16.41
2023-05-22T19:14:25.875Z,16.42
2023-05-22T19:16:54.325Z,16.32
2023-05-22T19:19:22.059Z,16.27
2023-05-22T19:21:50.670Z,16.32
2023-05-22T19:24:21.072Z,16.19
2023-05-22T19:26:49.522Z,16.08
2023-05-22T19:29:20.699Z,15.77
2023-05-22T19:31:48.088Z,15.97
2023-05-22T19:34:16.503Z,15.89
2023-05-22T19:36:43.890Z,16.01
2023-05-22T19:39:12.572Z,15.95
2023-05-22T19:41:40.593Z,15.73
2023-05-22T19:44:08.946Z,15.54
2023-05-22T19:46:36.724Z,15.68
2023-05-22T19:49:05.080Z,15.50
2023-05-22T19:51:38.037Z,15.70
2023-05-22T19:54:08.964Z,15.24
2023-05-22T19:56:36.448Z,15.15
2023-05-22T19:59:04.629Z,15.41
2023-05-22T20:01:38.697Z,15.26
2023-05-22T20:04:12.189Z,15.17
2023-05-22T20:06:42.252Z,15.30
2023-05-22T20:09:12.609Z,15.18
2023-05-22T20:11:52.255Z,15.05
2023-05-22T20:14:22.136Z,14.82
2023-05-22T20:16:54.895Z,14.70
2023-05-22T20:19:29.864Z,14.74
2023-05-22T20:22:01.454Z,14.75
2023-05-22T20:24:30.018Z,14.58
2023-05-22T20:26:58.802Z,14.71
2023-05-22T20:29:28.984Z,14.66
2023-05-22T20:31:59.174Z,14.94
2023-05-22T20:34:29.011Z,14.79
2023-05-22T20:36:58.967Z,14.50
2023-05-22T20:39:37.372Z,14.60
2023-05-22T20:42:22.925Z,14.35
2023-05-22T20:44:53.474Z,14.28
2023-05-22T20:47:28.220Z,14.16
2023-05-22T20:50:10.045Z,14.43
2023-05-22T20:52:53.699Z,14.35
2023-05-22T20:55:38.885Z,14.44
2023-05-22T20:58:09.952Z,13.91
2023-05-22T21:00:42.266Z,14.61
2023-05-22T21:03:34.261Z,14.50
2023-05-22T21:06:17.586Z,14.00
2023-05-22T21:09:08.064Z,13.92
2023-05-22T21:11:42.626Z,14.41
2023-05-22T21:14:16.180Z,14.16
2023-05-22T21:16:53.343Z,14.19
2023-05-22T21:19:32.278Z,14.04
2023-05-22T21:22:09.176Z,14.24
2023-05-22T21:24:38.209Z,13.95
2023-05-22T21:27:09.529Z,13.84
2023-05-22T21:29:42.988Z,13.46
2023-05-22T21:32:27.854Z,13.38
2023-05-22T21:34:59.141Z,13.60
2023-05-22T21:37:36.230Z,13.75
2023-05-22T21:40:05.081Z,13.95
2023-05-22T21:42:44.975Z,13.35
2023-05-22T21:45:16.209Z,13.73
2023-05-22T21:47:47.170Z,13.46
2023-05-22T21:50:15.722Z,13.64
2023-05-22T21:52:44.688Z,13.80
2023-05-22T21:55:14.596Z,13.59
2023-05-22T21:57:46.424Z,13.64
2023-05-22T22:00:19.702Z,13.22
2023-05-22T22:02:58.130Z,13.17
2023-05-22T22:05:33.664Z,13.00
2023-05-22T22:08:08.476Z,13.03
2023-05-22T22:10:40.305Z,13.04
2023-05-22T22:13:11.931Z,13.14
2023-05-22T22:15:40.204Z,12.95
2023-05-22T22:18:15.264Z,13.06
2023-05-22T22:20:49.549Z,13.25
2023-05-22T22:23:18.024Z,13.11
2023-05-22T22:25:46.303Z,13.15
2023-05-22T22:28:16.817Z,13.18
2023-05-22T22:30:45.412Z,12.99
2023-05-22T22:33:17.350Z,12.96
2023-05-22T22:35:51.891Z,13.11
2023-05-22T22:38:22.328Z,13.14
2023-05-22T22:40:56.917Z,13.05
2023-05-22T22:43:36.248Z,13.04
2023-05-22T22:46:10.929Z,12.92
2023-05-22T22:48:42.793Z,13.05
2023-05-22T22:51:14.613Z,13.01
2023-05-22T22:53:45.051Z,12.96
2023-05-22T22:56:20.356Z,13.05
2023-05-22T22:58:58.693Z,12.94
2023-05-22T23:01:28.999Z,13.24
2023-05-22T23:04:02.381Z,13.19
2023-05-22T23:06:56.805Z,13.07
2023-05-22T23:09:36.361Z,13.23
2023-05-22T23:12:22.606Z,13.09
2023-05-22T23:14:57.983Z,13.25
2023-05-22T23:17:48.102Z,13.13
2023-05-22T23:20:33.243Z,13.08
2023-05-22T23:23:19.140Z,13.08
2023-05-22T23:25:53.116Z,13.04
2023-05-22T23:31:22.727Z,12.90
2023-05-22T23:34:17.783Z,12.91
2023-05-22T23:37:05.250Z,12.99
2023-05-22T23:39:44.733Z,12.78
2023-05-22T23:42:14.672Z,12.88
2023-05-22T23:44:44.412Z,12.84
2023-05-22T23:47:24.579Z,12.42
2023-05-22T23:49:57.263Z,12.61
2023-05-22T23:52:31.628Z,12.66
2023-05-22T23:55:05.435Z,12.38
2023-05-22T23:57:33.637Z,12.58
